sensor_id;sensor_type;location;lat;lon;timestamp;P1;durP1;ratioP1;P2;durP2;ratioP2
25870;SDS011;13689;48.590;7.752;2023-04-25T00:00:42;2.85;;;1.08;;
25870;SDS011;13689;48.590;7.752;2023-04-25T00:03:08;1.27;;;1.00;;
25870;SDS011;13689;48.590;7.752;2023-04-25T00:05:33;4.28;;;1.58;;
25870;SDS011;13689;48.590;7.752;2023-04-25T00:10:27;4.68;;;1.02;;
25870;SDS011;13689;48.590;7.752;2023-04-25T00:12:53;2.17;;;1.33;;
25870;SDS011;13689;48.590;7.752;2023-04-25T00:15:19;1.90;;;1.05;;
25870;SDS011;13689;48.590;7.752;2023-04-25T00:17:44;2.42;;;0.95;;
25870;SDS011;13689;48.590;7.752;2023-04-25T00:20:11;2.70;;;1.17;;
25870;SDS011;13689;48.590;7.752;2023-04-25T00:22:37;3.00;;;1.20;;
25870;SDS011;13689;48.590;7.752;2023-04-25T00:25:06;3.30;;;1.20;;
25870;SDS011;13689;48.590;7.752;2023-04-25T00:27:32;4.65;;;1.30;;
25870;SDS011;13689;48.590;7.752;2023-04-25T00:29:58;2.50;;;1.08;;
25870;SDS011;13689;48.590;7.752;2023-04-25T00:32:23;3.53;;;2.38;;
25870;SDS011;13689;48.590;7.752;2023-04-25T00:34:49;4.28;;;1.20;;
25870;SDS011;13689;48.590;7.752;2023-04-25T00:37:15;3.22;;;1.23;;
25870;SDS011;13689;48.590;7.752;2023-04-25T00:39:40;3.80;;;1.45;;
25870;SDS011;13689;48.590;7.752;2023-04-25T00:42:06;4.00;;;1.38;;
25870;SDS011;13689;48.590;7.752;2023-04-25T00:44:33;6.70;;;1.92;;
25870;SDS011;13689;48.590;7.752;2023-04-25T00:47:01;3.17;;;1.73;;
25870;SDS011;13689;48.590;7.752;2023-04-25T00:49:27;9.23;;;1.50;;
25870;SDS011;13689;48.590;7.752;2023-04-25T00:51:52;7.20;;;2.85;;
25870;SDS011;13689;48.590;7.752;2023-04-25T00:54:19;5.68;;;1.55;;
25870;SDS011;13689;48.590;7.752;2023-04-25T00:56:45;2.85;;;1.45;;
25870;SDS011;13689;48.590;7.752;2023-04-25T00:59:10;3.78;;;1.60;;
25870;SDS011;13689;48.590;7.752;2023-04-25T01:01:38;5.30;;;1.95;;
25870;SDS011;13689;48.590;7.752;2023-04-25T01:04:04;4.55;;;2.10;;
25870;SDS011;13689;48.590;7.752;2023-04-25T01:06:31;5.68;;;2.13;;
25870;SDS011;13689;48.590;7.752;2023-04-25T01:08:56;2.15;;;1.80;;
25870;SDS011;13689;48.590;7.752;2023-04-25T01:11:23;4.82;;;2.22;;
25870;SDS011;13689;48.590;7.752;2023-04-25T01:13:49;4.43;;;2.15;;
25870;SDS011;13689;48.590;7.752;2023-04-25T01:16:15;5.57;;;2.30;;
25870;SDS011;13689;48.590;7.752;2023-04-25T01:18:41;3.95;;;2.30;;
25870;SDS011;13689;48.590;7.752;2023-04-25T01:21:08;5.22;;;2.75;;
25870;SDS011;13689;48.590;7.752;2023-04-25T01:23:35;3.08;;;2.08;;
25870;SDS011;13689;48.590;7.752;2023-04-25T01:26:01;6.97;;;2.50;;
25870;SDS011;13689;48.590;7.752;2023-04-25T01:28:27;5.22;;;2.40;;
25870;SDS011;13689;48.590;7.752;2023-04-25T01:30:53;3.17;;;2.42;;
25870;SDS011;13689;48.590;7.752;2023-04-25T01:33:20;4.88;;;2.45;;
25870;SDS011;13689;48.590;7.752;2023-04-25T01:35:47;5.00;;;2.92;;
25870;SDS011;13689;48.590;7.752;2023-04-25T01:38:13;5.38;;;2.60;;
25870;SDS011;13689;48.590;7.752;2023-04-25T01:40:40;5.63;;;2.75;;
25870;SDS011;13689;48.590;7.752;2023-04-25T01:43:06;4.82;;;2.47;;
25870;SDS011;13689;48.590;7.752;2023-04-25T01:45:36;5.88;;;2.53;;
25870;SDS011;13689;48.590;7.752;2023-04-25T01:48:04;4.43;;;2.50;;
25870;SDS011;13689;48.590;7.752;2023-04-25T01:50:30;2.58;;;2.35;;
25870;SDS011;13689;48.590;7.752;2023-04-25T01:52:56;6.07;;;2.97;;
25870;SDS011;13689;48.590;7.752;2023-04-25T01:55:22;5.20;;;3.15;;
25870;SDS011;13689;48.590;7.752;2023-04-25T01:57:47;5.32;;;2.67;;
25870;SDS011;13689;48.590;7.752;2023-04-25T02:00:13;4.97;;;3.20;;
25870;SDS011;13689;48.590;7.752;2023-04-25T02:02:39;6.05;;;3.03;;
25870;SDS011;13689;48.590;7.752;2023-04-25T02:05:05;6.47;;;3.03;;
25870;SDS011;13689;48.590;7.752;2023-04-25T02:07:31;5.78;;;2.97;;
25870;SDS011;13689;48.590;7.752;2023-04-25T02:09:57;3.92;;;2.80;;
25870;SDS011;13689;48.590;7.752;2023-04-25T02:12:23;5.53;;;2.92;;
25870;SDS011;13689;48.590;7.752;2023-04-25T02:14:51;4.30;;;2.83;;
25870;SDS011;13689;48.590;7.752;2023-04-25T02:17:16;4.10;;;2.85;;
25870;SDS011;13689;48.590;7.752;2023-04-25T02:19:42;4.63;;;3.33;;
25870;SDS011;13689;48.590;7.752;2023-04-25T02:22:08;6.15;;;3.33;;
25870;SDS011;13689;48.590;7.752;2023-04-25T02:24:35;8.70;;;2.88;;
25870;SDS011;13689;48.590;7.752;2023-04-25T02:27:01;4.38;;;3.38;;
25870;SDS011;13689;48.590;7.752;2023-04-25T02:29:26;7.15;;;3.08;;
25870;SDS011;13689;48.590;7.752;2023-04-25T02:31:52;4.57;;;2.95;;
25870;SDS011;13689;48.590;7.752;2023-04-25T02:34:17;4.45;;;2.80;;
25870;SDS011;13689;48.590;7.752;2023-04-25T02:36:43;6.82;;;3.53;;
25870;SDS011;13689;48.590;7.752;2023-04-25T02:39:09;3.92;;;3.20;;
25870;SDS011;13689;48.590;7.752;2023-04-25T02:41:35;3.45;;;3.13;;
25870;SDS011;13689;48.590;7.752;2023-04-25T02:44:00;4.40;;;3.20;;
25870;SDS011;13689;48.590;7.752;2023-04-25T02:46:26;4.40;;;3.03;;
25870;SDS011;13689;48.590;7.752;2023-04-25T02:48:51;3.00;;;2.70;;
25870;SDS011;13689;48.590;7.752;2023-04-25T02:51:17;5.57;;;2.40;;
25870;SDS011;13689;48.590;7.752;2023-04-25T02:53:43;4.93;;;2.92;;
25870;SDS011;13689;48.590;7.752;2023-04-25T02:56:09;5.28;;;2.80;;
25870;SDS011;13689;48.590;7.752;2023-04-25T02:58:35;5.20;;;2.60;;
25870;SDS011;13689;48.590;7.752;2023-04-25T03:01:01;8.90;;;2.88;;
25870;SDS011;13689;48.590;7.752;2023-04-25T03:03:27;4.05;;;2.50;;
25870;SDS011;13689;48.590;7.752;2023-04-25T03:05:52;4.30;;;2.60;;
25870;SDS011;13689;48.590;7.752;2023-04-25T03:08:18;5.72;;;2.45;;
25870;SDS011;13689;48.590;7.752;2023-04-25T03:10:44;2.92;;;2.45;;
25870;SDS011;13689;48.590;7.752;2023-04-25T03:13:10;3.38;;;2.38;;
25870;SDS011;13689;48.590;7.752;2023-04-25T03:15:36;5.78;;;2.42;;
25870;SDS011;13689;48.590;7.752;2023-04-25T03:18:02;7.20;;;2.13;;
25870;SDS011;13689;48.590;7.752;2023-04-25T03:20:28;2.20;;;1.90;;
25870;SDS011;13689;48.590;7.752;2023-04-25T03:22:54;2.70;;;2.30;;
25870;SDS011;13689;48.590;7.752;2023-04-25T03:25:21;4.97;;;2.78;;
25870;SDS011;13689;48.590;7.752;2023-04-25T03:27:46;4.97;;;2.40;;
25870;SDS011;13689;48.590;7.752;2023-04-25T03:30:12;7.70;;;2.70;;
25870;SDS011;13689;48.590;7.752;2023-04-25T03:32:38;3.28;;;2.50;;
25870;SDS011;13689;48.590;7.752;2023-04-25T03:35:03;3.38;;;2.30;;
25870;SDS011;13689;48.590;7.752;2023-04-25T03:37:30;4.53;;;2.97;;
25870;SDS011;13689;48.590;7.752;2023-04-25T03:39:55;3.83;;;2.35;;
25870;SDS011;13689;48.590;7.752;2023-04-25T03:42:21;5.45;;;2.45;;
25870;SDS011;13689;48.590;7.752;2023-04-25T03:44:48;4.57;;;3.10;;
25870;SDS011;13689;48.590;7.752;2023-04-25T03:47:14;5.05;;;2.72;;
25870;SDS011;13689;48.590;7.752;2023-04-25T03:49:40;4.57;;;2.42;;
25870;SDS011;13689;48.590;7.752;2023-04-25T03:52:06;4.40;;;2.50;;
25870;SDS011;13689;48.590;7.752;2023-04-25T03:54:32;3.47;;;2.53;;
25870;SDS011;13689;48.590;7.752;2023-04-25T03:56:57;2.92;;;2.53;;
25870;SDS011;13689;48.590;7.752;2023-04-25T03:59:23;3.88;;;2.78;;
25870;SDS011;13689;48.590;7.752;2023-04-25T04:01:50;3.58;;;2.85;;
25870;SDS011;13689;48.590;7.752;2023-04-25T04:04:15;5.53;;;3.00;;
25870;SDS011;13689;48.590;7.752;2023-04-25T04:06:41;3.75;;;3.13;;
25870;SDS011;13689;48.590;7.752;2023-04-25T04:09:07;7.45;;;3.42;;
25870;SDS011;13689;48.590;7.752;2023-04-25T04:11:35;5.13;;;3.38;;
25870;SDS011;13689;48.590;7.752;2023-04-25T04:14:05;7.25;;;2.80;;
25870;SDS011;13689;48.590;7.752;2023-04-25T04:16:31;7.95;;;3.03;;
25870;SDS011;13689;48.590;7.752;2023-04-25T04:18:57;7.60;;;2.90;;
25870;SDS011;13689;48.590;7.752;2023-04-25T04:21:22;6.65;;;3.45;;
25870;SDS011;13689;48.590;7.752;2023-04-25T04:23:48;6.45;;;3.28;;
25870;SDS011;13689;48.590;7.752;2023-04-25T04:26:14;6.63;;;4.15;;
25870;SDS011;13689;48.590;7.752;2023-04-25T04:28:41;4.72;;;2.85;;
25870;SDS011;13689;48.590;7.752;2023-04-25T04:31:09;6.28;;;3.60;;
25870;SDS011;13689;48.590;7.752;2023-04-25T04:33:35;4.68;;;2.95;;
25870;SDS011;13689;48.590;7.752;2023-04-25T04:36:01;6.93;;;3.80;;
25870;SDS011;13689;48.590;7.752;2023-04-25T04:38:28;9.32;;;4.05;;
25870;SDS011;13689;48.590;7.752;2023-04-25T04:40:54;9.63;;;3.45;;
25870;SDS011;13689;48.590;7.752;2023-04-25T04:43:19;9.13;;;3.35;;
25870;SDS011;13689;48.590;7.752;2023-04-25T04:45:45;7.03;;;3.28;;
25870;SDS011;13689;48.590;7.752;2023-04-25T04:48:11;7.10;;;3.72;;
25870;SDS011;13689;48.590;7.752;2023-04-25T04:50:39;6.90;;;3.75;;
25870;SDS011;13689;48.590;7.752;2023-04-25T04:53:05;6.07;;;3.33;;
25870;SDS011;13689;48.590;7.752;2023-04-25T04:55:30;6.25;;;3.33;;
25870;SDS011;13689;48.590;7.752;2023-04-25T04:57:56;7.65;;;3.63;;
25870;SDS011;13689;48.590;7.752;2023-04-25T05:00:22;9.20;;;4.22;;
25870;SDS011;13689;48.590;7.752;2023-04-25T05:02:47;5.57;;;3.63;;
25870;SDS011;13689;48.590;7.752;2023-04-25T05:05:13;7.72;;;4.47;;
25870;SDS011;13689;48.590;7.752;2023-04-25T05:07:38;7.00;;;4.28;;
25870;SDS011;13689;48.590;7.752;2023-04-25T05:10:04;7.20;;;4.28;;
25870;SDS011;13689;48.590;7.752;2023-04-25T05:12:31;4.90;;;3.50;;
25870;SDS011;13689;48.590;7.752;2023-04-25T05:14:57;7.18;;;3.83;;
25870;SDS011;13689;48.590;7.752;2023-04-25T05:17:22;5.85;;;4.10;;
25870;SDS011;13689;48.590;7.752;2023-04-25T05:19:48;7.32;;;3.67;;
25870;SDS011;13689;48.590;7.752;2023-04-25T05:22:13;7.20;;;4.07;;
25870;SDS011;13689;48.590;7.752;2023-04-25T05:24:39;5.82;;;3.88;;
25870;SDS011;13689;48.590;7.752;2023-04-25T05:27:05;10.60;;;4.00;;
25870;SDS011;13689;48.590;7.752;2023-04-25T05:29:30;9.52;;;3.35;;
25870;SDS011;13689;48.590;7.752;2023-04-25T05:31:56;5.65;;;4.05;;
25870;SDS011;13689;48.590;7.752;2023-04-25T05:34:22;6.65;;;4.28;;
25870;SDS011;13689;48.590;7.752;2023-04-25T05:36:47;6.47;;;4.70;;
25870;SDS011;13689;48.590;7.752;2023-04-25T05:39:14;6.43;;;4.57;;
25870;SDS011;13689;48.590;7.752;2023-04-25T05:44:07;6.97;;;3.92;;
25870;SDS011;13689;48.590;7.752;2023-04-25T05:46:32;6.35;;;3.90;;
25870;SDS011;13689;48.590;7.752;2023-04-25T05:48:58;7.30;;;3.30;;
25870;SDS011;13689;48.590;7.752;2023-04-25T05:51:24;7.10;;;4.05;;
25870;SDS011;13689;48.590;7.752;2023-04-25T05:53:49;5.97;;;3.10;;
25870;SDS011;13689;48.590;7.752;2023-04-25T05:56:15;7.30;;;3.10;;
25870;SDS011;13689;48.590;7.752;2023-04-25T05:58:40;4.25;;;2.60;;
25870;SDS011;13689;48.590;7.752;2023-04-25T06:01:06;5.32;;;2.90;;
25870;SDS011;13689;48.590;7.752;2023-04-25T06:03:31;8.05;;;3.25;;
25870;SDS011;13689;48.590;7.752;2023-04-25T06:05:57;7.07;;;2.75;;
25870;SDS011;13689;48.590;7.752;2023-04-25T06:08:23;4.82;;;3.08;;
25870;SDS011;13689;48.590;7.752;2023-04-25T06:10:48;5.30;;;3.30;;
25870;SDS011;13689;48.590;7.752;2023-04-25T06:13:14;5.18;;;2.60;;
25870;SDS011;13689;48.590;7.752;2023-04-25T06:15:40;5.60;;;2.92;;
25870;SDS011;13689;48.590;7.752;2023-04-25T06:18:06;6.88;;;2.50;;
25870;SDS011;13689;48.590;7.752;2023-04-25T06:20:32;5.40;;;2.83;;
25870;SDS011;13689;48.590;7.752;2023-04-25T06:22:57;7.60;;;2.90;;
25870;SDS011;13689;48.590;7.752;2023-04-25T06:25:23;4.45;;;3.17;;
25870;SDS011;13689;48.590;7.752;2023-04-25T06:27:48;6.25;;;2.65;;
25870;SDS011;13689;48.590;7.752;2023-04-25T06:30:14;2.22;;;2.03;;
25870;SDS011;13689;48.590;7.752;2023-04-25T06:32:41;4.53;;;1.75;;
25870;SDS011;13689;48.590;7.752;2023-04-25T06:35:07;2.67;;;1.92;;
25870;SDS011;13689;48.590;7.752;2023-04-25T06:37:32;3.03;;;1.42;;
25870;SDS011;13689;48.590;7.752;2023-04-25T06:39:58;2.33;;;0.90;;
25870;SDS011;13689;48.590;7.752;2023-04-25T06:42:24;2.63;;;1.10;;
25870;SDS011;13689;48.590;7.752;2023-04-25T06:44:50;0.93;;;0.93;;
25870;SDS011;13689;48.590;7.752;2023-04-25T06:47:15;1.70;;;1.20;;
25870;SDS011;13689;48.590;7.752;2023-04-25T06:49:41;6.05;;;1.50;;
25870;SDS011;13689;48.590;7.752;2023-04-25T06:52:07;4.38;;;1.40;;
25870;SDS011;13689;48.590;7.752;2023-04-25T06:54:33;1.67;;;1.45;;
25870;SDS011;13689;48.590;7.752;2023-04-25T06:56:58;3.78;;;1.20;;
25870;SDS011;13689;48.590;7.752;2023-04-25T06:59:25;1.90;;;1.23;;
25870;SDS011;13689;48.590;7.752;2023-04-25T07:01:51;2.40;;;1.20;;
25870;SDS011;13689;48.590;7.752;2023-04-25T07:04:17;1.40;;;1.25;;
25870;SDS011;13689;48.590;7.752;2023-04-25T07:06:42;3.25;;;1.23;;
25870;SDS011;13689;48.590;7.752;2023-04-25T07:09:08;1.83;;;1.60;;
25870;SDS011;13689;48.590;7.752;2023-04-25T07:11:37;4.20;;;1.10;;
25870;SDS011;13689;48.590;7.752;2023-04-25T07:14:02;1.38;;;1.00;;
25870;SDS011;13689;48.590;7.752;2023-04-25T07:16:28;5.00;;;0.90;;
25870;SDS011;13689;48.590;7.752;2023-04-25T07:18:54;1.38;;;1.27;;
25870;SDS011;13689;48.590;7.752;2023-04-25T07:21:20;1.70;;;0.65;;
25870;SDS011;13689;48.590;7.752;2023-04-25T07:23:46;1.77;;;1.25;;
25870;SDS011;13689;48.590;7.752;2023-04-25T07:26:11;3.55;;;1.02;;
25870;SDS011;13689;48.590;7.752;2023-04-25T07:28:37;1.13;;;1.10;;
25870;SDS011;13689;48.590;7.752;2023-04-25T07:31:02;0.90;;;0.90;;
25870;SDS011;13689;48.590;7.752;2023-04-25T07:33:28;0.82;;;0.80;;
25870;SDS011;13689;48.590;7.752;2023-04-25T07:35:54;2.90;;;0.93;;
25870;SDS011;13689;48.590;7.752;2023-04-25T07:38:20;1.13;;;1.00;;
25870;SDS011;13689;48.590;7.752;2023-04-25T07:40:47;0.82;;;0.82;;
25870;SDS011;13689;48.590;7.752;2023-04-25T07:43:13;0.90;;;0.90;;
25870;SDS011;13689;48.590;7.752;2023-04-25T07:45:41;1.05;;;0.95;;
25870;SDS011;13689;48.590;7.752;2023-04-25T07:48:07;1.98;;;1.13;;
25870;SDS011;13689;48.590;7.752;2023-04-25T07:50:33;1.13;;;1.05;;
25870;SDS011;13689;48.590;7.752;2023-04-25T07:52:59;1.30;;;1.13;;
25870;SDS011;13689;48.590;7.752;2023-04-25T07:55:24;1.10;;;1.00;;
25870;SDS011;13689;48.590;7.752;2023-04-25T07:57:51;4.15;;;1.50;;
25870;SDS011;13689;48.590;7.752;2023-04-25T08:00:16;4.55;;;1.25;;
25870;SDS011;13689;48.590;7.752;2023-04-25T08:02:42;1.75;;;1.30;;
25870;SDS011;13689;48.590;7.752;2023-04-25T08:05:08;3.08;;;1.10;;
25870;SDS011;13689;48.590;7.752;2023-04-25T08:07:36;5.07;;;1.67;;
25870;SDS011;13689;48.590;7.752;2023-04-25T08:10:04;1.20;;;1.10;;
25870;SDS011;13689;48.590;7.752;2023-04-25T08:12:30;3.63;;;1.35;;
25870;SDS011;13689;48.590;7.752;2023-04-25T08:14:56;2.35;;;1.40;;
25870;SDS011;13689;48.590;7.752;2023-04-25T08:17:21;1.42;;;1.00;;
25870;SDS011;13689;48.590;7.752;2023-04-25T08:19:47;0.77;;;0.77;;
25870;SDS011;13689;48.590;7.752;2023-04-25T08:22:13;2.15;;;1.40;;
25870;SDS011;13689;48.590;7.752;2023-04-25T08:24:39;2.22;;;1.02;;
25870;SDS011;13689;48.590;7.752;2023-04-25T08:27:06;1.20;;;0.70;;
25870;SDS011;13689;48.590;7.752;2023-04-25T08:29:32;1.38;;;0.85;;
25870;SDS011;13689;48.590;7.752;2023-04-25T08:31:58;1.83;;;0.43;;
25870;SDS011;13689;48.590;7.752;2023-04-25T08:34:24;1.92;;;0.88;;
25870;SDS011;13689;48.590;7.752;2023-04-25T08:36:50;1.33;;;0.70;;
25870;SDS011;13689;48.590;7.752;2023-04-25T08:39:16;2.35;;;1.35;;
25870;SDS011;13689;48.590;7.752;2023-04-25T08:41:42;2.20;;;1.20;;
25870;SDS011;13689;48.590;7.752;2023-04-25T08:44:10;2.30;;;0.90;;
25870;SDS011;13689;48.590;7.752;2023-04-25T08:46:37;3.05;;;1.52;;
25870;SDS011;13689;48.590;7.752;2023-04-25T08:49:05;1.10;;;1.00;;
25870;SDS011;13689;48.590;7.752;2023-04-25T08:51:34;1.17;;;0.95;;
25870;SDS011;13689;48.590;7.752;2023-04-25T08:54:13;1.92;;;1.30;;
25870;SDS011;13689;48.590;7.752;2023-04-25T08:56:40;2.95;;;1.27;;
25870;SDS011;13689;48.590;7.752;2023-04-25T08:59:09;2.47;;;1.23;;
25870;SDS011;13689;48.590;7.752;2023-04-25T09:01:35;1.63;;;0.80;;
25870;SDS011;13689;48.590;7.752;2023-04-25T09:04:01;0.82;;;0.82;;
25870;SDS011;13689;48.590;7.752;2023-04-25T09:06:28;1.60;;;1.25;;
25870;SDS011;13689;48.590;7.752;2023-04-25T09:11:26;1.73;;;1.20;;
25870;SDS011;13689;48.590;7.752;2023-04-25T09:13:54;1.25;;;0.93;;
25870;SDS011;13689;48.590;7.752;2023-04-25T09:19:25;1.27;;;0.80;;
25870;SDS011;13689;48.590;7.752;2023-04-25T09:21:54;3.33;;;1.10;;
25870;SDS011;13689;48.590;7.752;2023-04-25T09:24:57;1.52;;;1.15;;
25870;SDS011;13689;48.590;7.752;2023-04-25T09:27:19;0.90;;;0.88;;
25870;SDS011;13689;48.590;7.752;2023-04-25T09:29:50;2.17;;;0.80;;
25870;SDS011;13689;48.590;7.752;2023-04-25T09:32:23;1.10;;;0.88;;
25870;SDS011;13689;48.590;7.752;2023-04-25T09:34:50;0.93;;;0.88;;
25870;SDS011;13689;48.590;7.752;2023-04-25T09:37:17;1.75;;;0.98;;
25870;SDS011;13689;48.590;7.752;2023-04-25T09:39:47;2.67;;;0.88;;
25870;SDS011;13689;48.590;7.752;2023-04-25T09:42:14;1.00;;;1.00;;
25870;SDS011;13689;48.590;7.752;2023-04-25T09:44:42;3.10;;;1.10;;
25870;SDS011;13689;48.590;7.752;2023-04-25T09:47:09;1.52;;;1.42;;
25870;SDS011;13689;48.590;7.752;2023-04-25T09:49:38;2.92;;;1.30;;
25870;SDS011;13689;48.590;7.752;2023-04-25T09:52:06;1.58;;;1.10;;
25870;SDS011;13689;48.590;7.752;2023-04-25T09:54:31;5.65;;;1.27;;
25870;SDS011;13689;48.590;7.752;2023-04-25T09:56:57;1.35;;;1.20;;
25870;SDS011;13689;48.590;7.752;2023-04-25T09:59:38;2.15;;;1.23;;
25870;SDS011;13689;48.590;7.752;2023-04-25T10:04:31;3.42;;;2.08;;
25870;SDS011;13689;48.590;7.752;2023-04-25T10:06:59;2.00;;;1.55;;
25870;SDS011;13689;48.590;7.752;2023-04-25T10:09:26;6.60;;;2.58;;
25870;SDS011;13689;48.590;7.752;2023-04-25T10:11:58;3.08;;;1.70;;
25870;SDS011;13689;48.590;7.752;2023-04-25T10:14:25;7.65;;;1.90;;
25870;SDS011;13689;48.590;7.752;2023-04-25T10:16:51;2.85;;;2.00;;
25870;SDS011;13689;48.590;7.752;2023-04-25T10:19:21;3.08;;;2.08;;
25870;SDS011;13689;48.590;7.752;2023-04-25T10:24:39;6.13;;;2.95;;
25870;SDS011;13689;48.590;7.752;2023-04-25T10:27:05;2.33;;;1.95;;
25870;SDS011;13689;48.590;7.752;2023-04-25T10:29:32;3.05;;;2.10;;
25870;SDS011;13689;48.590;7.752;2023-04-25T10:31:57;4.57;;;2.50;;
25870;SDS011;13689;48.590;7.752;2023-04-25T10:34:23;5.15;;;2.03;;
25870;SDS011;13689;48.590;7.752;2023-04-25T10:37:02;3.13;;;2.47;;
25870;SDS011;13689;48.590;7.752;2023-04-25T10:39:28;2.95;;;2.25;;
25870;SDS011;13689;48.590;7.752;2023-04-25T10:41:57;4.55;;;2.13;;
25870;SDS011;13689;48.590;7.752;2023-04-25T10:44:27;6.18;;;2.25;;
25870;SDS011;13689;48.590;7.752;2023-04-25T10:46:57;2.85;;;1.90;;
25870;SDS011;13689;48.590;7.752;2023-04-25T10:49:31;2.45;;;2.05;;
25870;SDS011;13689;48.590;7.752;2023-04-25T10:54:48;4.10;;;2.13;;
25870;SDS011;13689;48.590;7.752;2023-04-25T10:57:26;2.45;;;2.17;;
25870;SDS011;13689;48.590;7.752;2023-04-25T10:59:54;4.70;;;2.03;;
25870;SDS011;13689;48.590;7.752;2023-04-25T11:02:24;2.22;;;2.03;;
25870;SDS011;13689;48.590;7.752;2023-04-25T11:04:52;3.58;;;2.33;;
25870;SDS011;13689;48.590;7.752;2023-04-25T11:07:33;3.15;;;2.25;;
25870;SDS011;13689;48.590;7.752;2023-04-25T11:10:03;3.05;;;2.13;;
25870;SDS011;13689;48.590;7.752;2023-04-25T11:12:33;5.75;;;2.10;;
25870;SDS011;13689;48.590;7.752;2023-04-25T11:15:03;2.72;;;2.40;;
25870;SDS011;13689;48.590;7.752;2023-04-25T11:17:30;2.53;;;2.28;;
25870;SDS011;13689;48.590;7.752;2023-04-25T11:19:56;3.13;;;2.40;;
25870;SDS011;13689;48.590;7.752;2023-04-25T11:22:22;2.40;;;2.20;;
25870;SDS011;13689;48.590;7.752;2023-04-25T11:24:48;2.63;;;2.15;;
25870;SDS011;13689;48.590;7.752;2023-04-25T11:27:14;4.20;;;1.73;;
25870;SDS011;13689;48.590;7.752;2023-04-25T11:29:40;3.25;;;1.50;;
25870;SDS011;13689;48.590;7.752;2023-04-25T11:32:05;2.28;;;1.70;;
25870;SDS011;13689;48.590;7.752;2023-04-25T11:34:32;1.65;;;1.55;;
25870;SDS011;13689;48.590;7.752;2023-04-25T11:36:59;7.93;;;2.30;;
25870;SDS011;13689;48.590;7.752;2023-04-25T11:39:28;4.47;;;1.80;;
25870;SDS011;13689;48.590;7.752;2023-04-25T11:41:54;3.53;;;2.10;;
25870;SDS011;13689;48.590;7.752;2023-04-25T11:44:20;3.25;;;1.70;;
25870;SDS011;13689;48.590;7.752;2023-04-25T11:46:47;1.73;;;1.63;;
25870;SDS011;13689;48.590;7.752;2023-04-25T11:49:13;2.60;;;1.90;;
25870;SDS011;13689;48.590;7.752;2023-04-25T11:51:46;3.70;;;2.47;;
25870;SDS011;13689;48.590;7.752;2023-04-25T11:54:15;6.82;;;2.70;;
25870;SDS011;13689;48.590;7.752;2023-04-25T11:56:44;5.00;;;2.58;;
25870;SDS011;13689;48.590;7.752;2023-04-25T11:59:11;3.83;;;2.38;;
25870;SDS011;13689;48.590;7.752;2023-04-25T12:01:38;4.18;;;3.20;;
25870;SDS011;13689;48.590;7.752;2023-04-25T12:04:16;3.83;;;2.90;;
25870;SDS011;13689;48.590;7.752;2023-04-25T12:06:44;4.22;;;3.00;;
25870;SDS011;13689;48.590;7.752;2023-04-25T12:09:14;4.47;;;3.50;;
25870;SDS011;13689;48.590;7.752;2023-04-25T12:11:52;4.60;;;3.20;;
25870;SDS011;13689;48.590;7.752;2023-04-25T12:16:56;6.30;;;4.45;;
25870;SDS011;13689;48.590;7.752;2023-04-25T12:19:31;6.75;;;3.50;;
25870;SDS011;13689;48.590;7.752;2023-04-25T12:22:01;5.75;;;2.72;;
25870;SDS011;13689;48.590;7.752;2023-04-25T12:24:28;4.93;;;3.22;;
25870;SDS011;13689;48.590;7.752;2023-04-25T12:27:00;6.65;;;3.20;;
25870;SDS011;13689;48.590;7.752;2023-04-25T12:29:31;4.95;;;2.90;;
25870;SDS011;13689;48.590;7.752;2023-04-25T12:31:57;3.42;;;2.88;;
25870;SDS011;13689;48.590;7.752;2023-04-25T12:34:24;4.47;;;2.70;;
25870;SDS011;13689;48.590;7.752;2023-04-25T12:36:51;2.80;;;2.60;;
25870;SDS011;13689;48.590;7.752;2023-04-25T12:39:18;4.95;;;2.13;;
25870;SDS011;13689;48.590;7.752;2023-04-25T12:41:44;1.85;;;1.20;;
25870;SDS011;13689;48.590;7.752;2023-04-25T12:44:11;2.10;;;1.90;;
25870;SDS011;13689;48.590;7.752;2023-04-25T12:46:37;6.30;;;2.10;;
25870;SDS011;13689;48.590;7.752;2023-04-25T12:49:04;2.28;;;2.08;;
25870;SDS011;13689;48.590;7.752;2023-04-25T12:51:32;2.00;;;1.83;;
25870;SDS011;13689;48.590;7.752;2023-04-25T12:53:58;3.72;;;0.60;;
25870;SDS011;13689;48.590;7.752;2023-04-25T12:56:25;2.60;;;2.10;;
25870;SDS011;13689;48.590;7.752;2023-04-25T12:58:54;2.85;;;1.33;;
25870;SDS011;13689;48.590;7.752;2023-04-25T13:01:20;1.90;;;1.80;;
25870;SDS011;13689;48.590;7.752;2023-04-25T13:03:46;3.08;;;2.03;;
25870;SDS011;13689;48.590;7.752;2023-04-25T13:06:14;2.40;;;1.67;;
25870;SDS011;13689;48.590;7.752;2023-04-25T13:08:40;2.95;;;2.08;;
25870;SDS011;13689;48.590;7.752;2023-04-25T13:11:07;2.00;;;1.80;;
25870;SDS011;13689;48.590;7.752;2023-04-25T13:13:32;1.58;;;1.48;;
25870;SDS011;13689;48.590;7.752;2023-04-25T13:16:00;5.18;;;1.50;;
25870;SDS011;13689;48.590;7.752;2023-04-25T13:18:31;1.65;;;1.50;;
25870;SDS011;13689;48.590;7.752;2023-04-25T13:20:57;2.50;;;1.20;;
25870;SDS011;13689;48.590;7.752;2023-04-25T13:23:24;3.10;;;1.67;;
25870;SDS011;13689;48.590;7.752;2023-04-25T13:25:51;2.03;;;1.58;;
25870;SDS011;13689;48.590;7.752;2023-04-25T13:28:16;1.92;;;1.60;;
25870;SDS011;13689;48.590;7.752;2023-04-25T13:30:42;1.63;;;1.42;;
25870;SDS011;13689;48.590;7.752;2023-04-25T13:33:08;3.10;;;1.90;;
25870;SDS011;13689;48.590;7.752;2023-04-25T13:35:34;1.30;;;1.10;;
25870;SDS011;13689;48.590;7.752;2023-04-25T13:38:01;4.88;;;1.95;;
25870;SDS011;13689;48.590;7.752;2023-04-25T13:40:27;5.00;;;2.10;;
25870;SDS011;13689;48.590;7.752;2023-04-25T13:42:53;1.13;;;1.02;;
25870;SDS011;13689;48.590;7.752;2023-04-25T13:45:23;2.22;;;2.03;;
25870;SDS011;13689;48.590;7.752;2023-04-25T13:47:48;1.95;;;1.60;;
25870;SDS011;13689;48.590;7.752;2023-04-25T13:50:14;1.45;;;1.35;;
25870;SDS011;13689;48.590;7.752;2023-04-25T13:52:41;2.80;;;1.92;;
25870;SDS011;13689;48.590;7.752;2023-04-25T13:55:07;2.75;;;2.20;;
25870;SDS011;13689;48.590;7.752;2023-04-25T13:57:33;2.80;;;2.10;;
25870;SDS011;13689;48.590;7.752;2023-04-25T13:59:59;2.45;;;2.00;;
25870;SDS011;13689;48.590;7.752;2023-04-25T14:02:33;2.40;;;2.20;;
25870;SDS011;13689;48.590;7.752;2023-04-25T14:04:59;2.47;;;2.28;;
25870;SDS011;13689;48.590;7.752;2023-04-25T14:07:25;3.60;;;2.75;;
25870;SDS011;13689;48.590;7.752;2023-04-25T14:09:51;2.42;;;2.10;;
25870;SDS011;13689;48.590;7.752;2023-04-25T14:12:17;1.75;;;1.25;;
25870;SDS011;13689;48.590;7.752;2023-04-25T14:14:42;2.13;;;1.58;;
25870;SDS011;13689;48.590;7.752;2023-04-25T14:17:08;3.25;;;1.92;;
25870;SDS011;13689;48.590;7.752;2023-04-25T14:19:34;1.73;;;1.63;;
25870;SDS011;13689;48.590;7.752;2023-04-25T14:21:59;1.60;;;1.52;;
25870;SDS011;13689;48.590;7.752;2023-04-25T14:24:26;1.95;;;1.75;;
25870;SDS011;13689;48.590;7.752;2023-04-25T14:26:51;1.73;;;1.27;;
25870;SDS011;13689;48.590;7.752;2023-04-25T14:29:17;1.40;;;1.10;;
25870;SDS011;13689;48.590;7.752;2023-04-25T14:31:42;3.38;;;1.48;;
25870;SDS011;13689;48.590;7.752;2023-04-25T14:34:08;1.70;;;1.60;;
25870;SDS011;13689;48.590;7.752;2023-04-25T14:36:34;2.22;;;1.60;;
25870;SDS011;13689;48.590;7.752;2023-04-25T14:39:00;2.55;;;1.80;;
25870;SDS011;13689;48.590;7.752;2023-04-25T14:41:27;2.15;;;1.77;;
25870;SDS011;13689;48.590;7.752;2023-04-25T14:43:52;2.50;;;2.30;;
25870;SDS011;13689;48.590;7.752;2023-04-25T14:46:19;2.15;;;1.80;;
25870;SDS011;13689;48.590;7.752;2023-04-25T14:48:45;1.90;;;1.80;;
25870;SDS011;13689;48.590;7.752;2023-04-25T14:51:12;1.98;;;1.70;;
25870;SDS011;13689;48.590;7.752;2023-04-25T14:53:37;2.42;;;1.92;;
25870;SDS011;13689;48.590;7.752;2023-04-25T14:56:03;2.00;;;1.85;;
25870;SDS011;13689;48.590;7.752;2023-04-25T14:58:29;2.00;;;1.80;;
25870;SDS011;13689;48.590;7.752;2023-04-25T15:00:54;2.30;;;1.98;;
25870;SDS011;13689;48.590;7.752;2023-04-25T15:03:20;2.30;;;2.10;;
25870;SDS011;13689;48.590;7.752;2023-04-25T15:05:46;2.25;;;1.95;;